Airfield :
LOGIN :

Register | Disclaimer

   EN    FR    IT 

 










Legend :    VFR   Marginal VFR   IFR   Intensive IFR   Very Intensive IFR
Visi :
Ceiling :
>= 8 km
>= 3000ft
5 to 8 km
1000 to 3000 ft
1500m to 5 km
500 to 1000 ft
800 to 1500m
200 to 500 ft
< 800m
< 200 ft
Symbols :   Thunderstorms  Fog  Heavy snow  Heavy precipitations  Wind > 20 kt
SIGMETs :     Misc.  Thunderstorms  Icing  Turbulence  Mountain Waves  Volcanic Ashes







- Airport Elevation : 306 ft
- IATA code : EMA
- Download approach charts


EGNX - Nottingham East Midlands

CURRENT METAR :
  • 212250Z 25008KT CAVOK 08/08 Q1018

EXPIRED METARs :
  • 212220Z 26007KT CAVOK 08/07 Q1018
  • 212150Z 21003KT 9999 FEW046 09/08 Q1018
  • 212120Z 26008KT 9999 FEW046 10/08 Q1018
  • 212050Z 24005KT 9999 FEW048 10/09 Q1017
  • 212020Z 26005KT CAVOK 10/09 Q1017
  • 211950Z 25006KT 9999 FEW033 11/09 Q1017

TAF AMD TAF EGNX
Valid from the 21 at 19:00 until the 22 at 18:00 UTC


211954Z 2119/2218 30012KT 9999 SCT025
BECMG 2121/2124 20002KT 8000
PROB30 2200/2208 0300 FG VV///
BECMG 2207/2210 22012KT 9999
PROB40
TEMPO 2214/2218 7000 RA
ATIS : +44 1332 852 852 (ext 3201)
No reported NOTAMs for that airfield.



MET'MAP, your aeronautical weather chart ! - Copyright ORBIFLY December 2007 - Disclaimer

ORBIFLY MET'MAP TEAM :

Programming & Development : Alexandra Zaïnal
Concept & Development : Baudouin d'Aumeries
Co-Development & Prog : Marc-Olivier Méhu
Technical & hardware support : Manuel Goepfert

Contact : metmap@orbifly.com




SOURCES & CREDITS :

   NOAA